Ewtrford, Pennsylvania
Current Conditions -  °F | °C
As of 6:53 AM on Monday 20 Oct 2014 (Local Time) from KAOO Reporting Station
Clear Clear  
Wind Chill:   Ceiling: Unl
Heat Index:   Visibility: 10mi
Dew Point:   Wind: 5mph
Humidity: 82%   Direction: 210°SSW
Pressure: 30.04"   Gusts: NA
Location:  40.3617°N, 77.6745°W
Report Text: KAOO 201053Z AUTO 21004KT 10SM CLR 05/02 A3004 RMK AO2 SLP182 T00500022
Loading
Personal Weather Stations






























Interactive Weather Map
Tropical Storm Tracking
New forecast layout! Learn more

10-Day Weather Forecast

Advertisements
Track Severe Weather on mobile